createdAt,value
2017-08-26T00:00:29.157Z,76.93
2017-08-26T00:01:29.172Z,76.84
2017-08-26T00:02:29.189Z,76.45
2017-08-26T00:03:29.204Z,76.55
2017-08-26T00:04:29.244Z,76.55
2017-08-26T00:05:29.255Z,76.93
2017-08-26T00:06:29.248Z,76.84
2017-08-26T00:07:29.262Z,76.75
2017-08-26T00:08:29.277Z,76.84
2017-08-26T00:09:29.305Z,77.51
2017-08-26T00:10:29.308Z,76.84
2017-08-26T00:11:29.322Z,76.71
2017-08-26T00:12:29.346Z,77.58
2017-08-26T00:13:29.391Z,77.28
2017-08-26T00:14:29.376Z,77.42
2017-08-26T00:15:29.386Z,77.09
2017-08-26T00:16:29.406Z,77.71
2017-08-26T00:17:29.436Z,77.86
2017-08-26T00:18:29.465Z,78.25
2017-08-26T00:19:29.451Z,78.92
2017-08-26T00:20:29.498Z,79.41
2017-08-26T00:21:29.477Z,79.41
2017-08-26T00:22:29.502Z,79.69
2017-08-26T00:23:29.510Z,78.83
2017-08-26T00:24:29.539Z,79.41
2017-08-26T00:25:29.550Z,79.11
2017-08-26T00:26:29.564Z,79.21
2017-08-26T00:27:29.572Z,79.50
2017-08-26T00:28:29.630Z,79.31
2017-08-26T00:29:29.595Z,79.11
2017-08-26T00:30:29.658Z,79.41
2017-08-26T00:31:29.634Z,79.31
2017-08-26T00:32:29.662Z,79.31
2017-08-26T00:33:29.653Z,79.21
2017-08-26T00:34:29.686Z,79.60
2017-08-26T00:35:29.693Z,79.41
2017-08-26T00:36:29.716Z,79.50
2017-08-26T00:37:29.715Z,79.21
2017-08-26T00:38:29.744Z,78.92
2017-08-26T00:39:29.750Z,79.21
2017-08-26T00:40:29.755Z,79.11
2017-08-26T00:41:29.773Z,79.21
2017-08-26T00:42:29.788Z,79.02
2017-08-26T00:43:29.801Z,79.89
2017-08-26T00:44:29.823Z,80.08
2017-08-26T00:45:29.829Z,79.85
2017-08-26T00:46:29.843Z,80.14
2017-08-26T00:47:29.864Z,79.66
2017-08-26T00:48:29.879Z,79.85
2017-08-26T00:49:29.891Z,79.94
2017-08-26T00:50:29.922Z,80.14
2017-08-26T00:51:29.918Z,80.43
2017-08-26T00:52:29.947Z,80.43
2017-08-26T00:53:29.949Z,80.91
2017-08-26T00:54:29.963Z,80.81
2017-08-26T00:55:29.984Z,80.43
2017-08-26T00:56:29.993Z,80.81
2017-08-26T00:57:30.004Z,81.01
2017-08-26T00:58:30.027Z,80.91
2017-08-26T00:59:30.051Z,80.52
2017-08-26T01:00:30.064Z,80.62
2017-08-26T01:01:30.074Z,80.91
2017-08-26T01:02:30.083Z,81.01
2017-08-26T01:03:30.098Z,81.48
2017-08-26T01:04:30.119Z,81.29
2017-08-26T01:05:30.165Z,81.20
2017-08-26T01:06:30.153Z,80.91
2017-08-26T01:07:30.151Z,80.71
2017-08-26T01:08:30.209Z,80.81
2017-08-26T01:09:30.187Z,81.01
2017-08-26T01:10:30.199Z,80.71
2017-08-26T01:11:30.216Z,80.43
2017-08-26T01:12:30.228Z,80.62
2017-08-26T01:13:30.253Z,80.91
2017-08-26T01:14:30.283Z,80.52
2017-08-26T01:15:30.281Z,80.91
2017-08-26T01:16:30.297Z,80.71
2017-08-26T01:17:30.300Z,80.81
2017-08-26T01:18:30.330Z,80.52
2017-08-26T01:19:30.335Z,80.23
2017-08-26T01:20:30.364Z,80.33
2017-08-26T01:21:30.371Z,80.23
2017-08-26T01:22:30.385Z,80.33
2017-08-26T01:23:30.398Z,80.52
2017-08-26T01:24:30.411Z,80.33
2017-08-26T01:25:30.421Z,80.52
2017-08-26T01:26:30.451Z,80.33
2017-08-26T01:27:30.463Z,80.43
2017-08-26T01:28:30.471Z,80.52
2017-08-26T01:29:30.490Z,80.52
2017-08-26T01:30:30.500Z,80.52
2017-08-26T01:31:30.512Z,80.43
2017-08-26T01:32:30.528Z,80.52
2017-08-26T01:33:30.561Z,80.33
2017-08-26T01:34:30.553Z,81.20
2017-08-26T01:35:30.571Z,81.29
2017-08-26T01:36:30.587Z,81.73
2017-08-26T01:37:30.648Z,82.41
2017-08-26T01:38:30.612Z,82.35
2017-08-26T01:39:30.634Z,81.83
2017-08-26T01:40:30.669Z,82.45
2017-08-26T01:41:30.663Z,82.26
2017-08-26T01:42:37.377Z,81.77
2017-08-26T01:43:30.692Z,81.87
2017-08-26T01:44:30.703Z,81.63
2017-08-26T01:45:30.714Z,81.96
2017-08-26T01:46:30.735Z,81.87
2017-08-26T01:47:30.742Z,83.22
2017-08-26T01:48:30.762Z,82.98
2017-08-26T01:49:30.775Z,82.60
2017-08-26T01:50:30.788Z,82.60
2017-08-26T01:51:30.801Z,82.83
2017-08-26T01:52:30.827Z,82.70
2017-08-26T01:53:30.835Z,82.83
2017-08-26T01:54:30.855Z,82.41
2017-08-26T01:55:30.861Z,82.12
2017-08-26T01:56:30.880Z,82.35
2017-08-26T01:57:30.889Z,82.70
2017-08-26T01:58:30.927Z,82.98
2017-08-26T01:59:30.968Z,83.41
2017-08-26T02:00:30.949Z,83.51
2017-08-26T02:01:30.956Z,83.70
2017-08-26T02:02:30.962Z,83.70
2017-08-26T02:03:30.992Z,84.23
2017-08-26T02:04:31.020Z,84.05
2017-08-26T02:05:31.013Z,84.23
2017-08-26T02:06:31.017Z,84.23
2017-08-26T02:07:31.043Z,83.85
2017-08-26T02:08:31.055Z,83.95
2017-08-26T02:09:31.080Z,84.14
2017-08-26T02:10:31.087Z,83.47
2017-08-26T02:11:31.097Z,83.56
2017-08-26T02:12:31.118Z,83.95
2017-08-26T02:13:31.125Z,83.37
2017-08-26T02:14:31.135Z,83.18
2017-08-26T02:15:31.153Z,83.18
2017-08-26T02:16:31.172Z,83.37
2017-08-26T02:17:31.207Z,83.47
2017-08-26T02:18:31.199Z,83.56
2017-08-26T02:19:31.246Z,83.66
2017-08-26T02:20:31.228Z,83.18
2017-08-26T02:21:31.242Z,83.37
2017-08-26T02:22:31.247Z,83.47
2017-08-26T02:23:31.267Z,83.08
2017-08-26T02:24:31.289Z,83.37
2017-08-26T02:25:31.304Z,83.18
2017-08-26T02:26:31.310Z,83.08
2017-08-26T02:27:31.349Z,83.08
2017-08-26T02:28:31.353Z,83.37
2017-08-26T02:29:31.381Z,83.28
2017-08-26T02:30:31.388Z,83.66
2017-08-26T02:31:31.384Z,83.56
2017-08-26T02:32:31.408Z,83.56
2017-08-26T02:33:31.414Z,83.56
2017-08-26T02:34:31.427Z,83.66
2017-08-26T02:35:31.444Z,83.37
2017-08-26T02:36:31.464Z,83.66
2017-08-26T02:37:31.470Z,83.47
2017-08-26T02:38:31.484Z,83.37
2017-08-26T02:39:31.499Z,83.37
2017-08-26T02:40:31.540Z,83.56
2017-08-26T02:41:31.538Z,83.37
2017-08-26T02:42:31.543Z,83.56
2017-08-26T02:43:31.582Z,84.23
2017-08-26T02:44:31.571Z,83.52
2017-08-26T02:45:31.599Z,84.10
2017-08-26T02:46:31.631Z,83.95
2017-08-26T02:47:31.654Z,83.52
2017-08-26T02:48:31.634Z,83.91
2017-08-26T02:49:31.656Z,84.00
2017-08-26T02:50:31.669Z,84.39
2017-08-26T02:51:31.675Z,84.87
2017-08-26T02:52:31.698Z,84.58
2017-08-26T02:53:31.702Z,84.48
2017-08-26T02:54:31.719Z,84.39
2017-08-26T02:55:31.729Z,84.39
2017-08-26T02:56:31.759Z,84.58
2017-08-26T02:57:31.761Z,84.67
2017-08-26T02:58:31.780Z,84.48
2017-08-26T02:59:31.793Z,84.29
2017-08-26T03:00:31.806Z,84.58
2017-08-26T03:01:31.820Z,83.91
2017-08-26T03:02:31.836Z,83.81
2017-08-26T03:03:31.851Z,84.19
2017-08-26T03:04:31.870Z,84.39
2017-08-26T03:05:31.875Z,84.48
2017-08-26T03:06:31.897Z,84.19
2017-08-26T03:07:31.908Z,83.72
2017-08-26T03:08:31.920Z,83.33
2017-08-26T03:09:31.931Z,83.42
2017-08-26T03:10:31.951Z,83.33
2017-08-26T03:11:31.968Z,83.72
2017-08-26T03:12:31.977Z,83.33
2017-08-26T03:13:31.992Z,83.14
2017-08-26T03:14:32.004Z,83.14
2017-08-26T03:15:32.020Z,83.23
2017-08-26T03:16:32.036Z,82.85
2017-08-26T03:17:32.050Z,82.85
2017-08-26T03:18:32.065Z,82.85
2017-08-26T03:19:32.079Z,82.85
2017-08-26T03:20:32.109Z,82.27
2017-08-26T03:21:32.113Z,82.46
2017-08-26T03:22:32.119Z,82.46
2017-08-26T03:23:32.146Z,82.27
2017-08-26T03:24:32.160Z,82.56
2017-08-26T03:25:32.164Z,82.17
2017-08-26T03:26:32.177Z,82.37
2017-08-26T03:27:32.194Z,82.17
2017-08-26T03:28:32.207Z,82.08
2017-08-26T03:29:32.223Z,82.08
2017-08-26T03:30:32.231Z,82.17
2017-08-26T03:31:32.252Z,82.37
2017-08-26T03:32:32.265Z,82.08
2017-08-26T03:33:32.278Z,81.70
2017-08-26T03:34:32.300Z,82.14
2017-08-26T03:35:32.305Z,82.04
2017-08-26T03:36:32.314Z,82.46
2017-08-26T03:37:32.332Z,82.71
2017-08-26T03:38:32.353Z,82.81
2017-08-26T03:39:32.360Z,83.14
2017-08-26T03:40:32.384Z,83.00
2017-08-26T03:41:32.394Z,83.77
2017-08-26T03:42:32.407Z,84.54
2017-08-26T03:43:32.417Z,84.83
2017-08-26T03:44:32.440Z,85.31
2017-08-26T03:45:32.467Z,85.69
2017-08-26T03:46:32.459Z,85.98
2017-08-26T03:47:32.473Z,86.46
2017-08-26T03:48:32.491Z,86.27
2017-08-26T03:49:32.506Z,85.78
2017-08-26T03:50:32.514Z,85.98
2017-08-26T03:51:32.533Z,85.78
2017-08-26T03:52:32.548Z,85.60
2017-08-26T03:53:32.565Z,85.98
2017-08-26T03:54:32.574Z,85.60
2017-08-26T03:55:32.588Z,85.78
2017-08-26T03:56:32.604Z,85.69
2017-08-26T03:57:32.623Z,85.88
2017-08-26T03:58:32.631Z,85.50
2017-08-26T03:59:32.646Z,85.50
2017-08-26T04:00:32.661Z,85.40
2017-08-26T04:01:32.672Z,85.60
2017-08-26T04:02:32.686Z,85.60
2017-08-26T04:03:32.700Z,85.31
2017-08-26T04:04:32.722Z,84.92
2017-08-26T04:05:32.734Z,85.60
2017-08-26T04:06:32.742Z,85.40
2017-08-26T04:07:32.764Z,84.54
2017-08-26T04:08:32.773Z,85.50
2017-08-26T04:09:32.782Z,85.78
2017-08-26T04:10:32.820Z,85.40
2017-08-26T04:11:32.815Z,85.60
2017-08-26T04:12:32.828Z,85.40
2017-08-26T04:13:32.859Z,85.40
2017-08-26T04:14:32.889Z,85.50
2017-08-26T04:15:32.883Z,85.21
2017-08-26T04:16:32.906Z,85.50
2017-08-26T04:17:32.899Z,85.50
2017-08-26T04:18:32.910Z,85.40
2017-08-26T04:19:32.930Z,85.60
2017-08-26T04:20:32.943Z,85.98
2017-08-26T04:21:32.957Z,85.21
2017-08-26T04:22:32.966Z,85.50
2017-08-26T04:23:32.977Z,85.60
2017-08-26T04:24:33.019Z,85.60
2017-08-26T04:25:33.018Z,84.92
2017-08-26T04:26:33.032Z,84.73
2017-08-26T04:27:33.065Z,84.54
2017-08-26T04:28:33.048Z,84.63
2017-08-26T04:29:33.073Z,84.63
2017-08-26T04:30:33.081Z,84.92
2017-08-26T04:31:33.094Z,85.11
2017-08-26T04:32:33.118Z,84.73
2017-08-26T04:33:33.124Z,84.54
2017-08-26T04:34:33.134Z,84.73
2017-08-26T04:35:33.145Z,84.44
2017-08-26T04:36:33.165Z,84.54
2017-08-26T04:37:33.177Z,84.34
2017-08-26T04:38:33.196Z,84.54
2017-08-26T04:39:33.215Z,84.34
2017-08-26T04:40:33.237Z,84.44
2017-08-26T04:41:33.261Z,84.63
2017-08-26T04:42:33.264Z,84.73
2017-08-26T04:43:33.259Z,85.11
2017-08-26T04:44:33.274Z,84.44
2017-08-26T04:45:33.303Z,84.63
2017-08-26T04:46:33.309Z,84.54
2017-08-26T04:47:33.317Z,84.63
2017-08-26T04:48:33.330Z,84.44
2017-08-26T04:49:33.368Z,84.34
2017-08-26T04:50:33.388Z,84.16
2017-08-26T04:51:33.398Z,84.34
2017-08-26T04:52:33.395Z,83.86
2017-08-26T04:53:33.408Z,84.06
2017-08-26T04:54:33.429Z,84.25
2017-08-26T04:55:33.475Z,83.67
2017-08-26T04:56:33.447Z,83.86
2017-08-26T04:57:33.490Z,83.19
2017-08-26T04:58:33.473Z,83.48
2017-08-26T04:59:33.485Z,83.39
2017-08-26T05:00:33.512Z,83.19
2017-08-26T05:01:33.512Z,83.19
2017-08-26T05:02:33.528Z,83.29
2017-08-26T05:03:33.557Z,83.09
2017-08-26T05:04:33.579Z,83.00
2017-08-26T05:05:33.575Z,83.19
2017-08-26T05:06:33.619Z,83.04
2017-08-26T05:07:33.630Z,83.19
2017-08-26T05:08:33.636Z,83.14
2017-08-26T05:09:33.659Z,83.39
2017-08-26T05:10:33.673Z,83.33
2017-08-26T05:11:33.664Z,83.52
2017-08-26T05:12:33.695Z,82.94
2017-08-26T05:13:33.684Z,83.52
2017-08-26T05:14:33.709Z,83.33
2017-08-26T05:15:33.771Z,83.04
2017-08-26T05:16:33.727Z,83.33
2017-08-26T05:17:33.772Z,83.23
2017-08-26T05:18:33.755Z,83.14
2017-08-26T05:19:33.774Z,83.33
2017-08-26T05:20:33.807Z,83.42
2017-08-26T05:21:33.813Z,83.33
2017-08-26T05:22:33.838Z,83.42
2017-08-26T05:23:33.839Z,83.62
2017-08-26T05:24:33.841Z,82.94
2017-08-26T05:25:33.862Z,82.85
2017-08-26T05:26:33.890Z,82.85
2017-08-26T05:27:33.895Z,82.85
2017-08-26T05:28:33.901Z,83.04
2017-08-26T05:29:33.933Z,83.28
2017-08-26T05:30:33.951Z,82.98
2017-08-26T05:31:33.954Z,82.70
2017-08-26T05:32:33.969Z,83.08
2017-08-26T05:33:33.979Z,82.79
2017-08-26T05:34:33.981Z,82.89
2017-08-26T05:35:34.020Z,82.98
2017-08-26T05:36:34.038Z,82.98
2017-08-26T05:37:34.031Z,83.08
2017-08-26T05:38:34.059Z,82.93
2017-08-26T05:39:34.062Z,82.79
2017-08-26T05:40:34.070Z,82.83
2017-08-26T05:41:34.108Z,82.74
2017-08-26T05:42:34.102Z,82.74
2017-08-26T05:43:34.116Z,82.35
2017-08-26T05:44:34.128Z,82.16
2017-08-26T05:45:34.148Z,82.54
2017-08-26T05:46:34.160Z,82.45
2017-08-26T05:47:34.180Z,82.35
2017-08-26T05:48:34.192Z,82.06
2017-08-26T05:49:34.204Z,82.06
2017-08-26T05:50:34.227Z,82.06
2017-08-26T05:51:34.230Z,81.81
2017-08-26T05:52:34.247Z,81.77
2017-08-26T05:53:34.261Z,82.06
2017-08-26T05:54:34.291Z,81.91
2017-08-26T05:55:34.290Z,82.20
2017-08-26T05:56:34.308Z,82.10
2017-08-26T05:57:34.321Z,81.91
2017-08-26T05:58:34.373Z,82.10
2017-08-26T05:59:34.349Z,81.91
2017-08-26T06:00:34.381Z,81.91
2017-08-26T06:01:34.393Z,81.62
2017-08-26T06:02:34.394Z,81.52
2017-08-26T06:03:34.415Z,81.57
2017-08-26T06:04:34.431Z,81.24
2017-08-26T06:05:34.440Z,81.09
2017-08-26T06:06:34.455Z,81.27
2017-08-26T06:07:34.474Z,81.27
2017-08-26T06:08:34.499Z,81.57
2017-08-26T06:09:34.507Z,81.18
2017-08-26T06:10:34.515Z,80.83
2017-08-26T06:11:34.527Z,79.43
2017-08-26T06:12:34.541Z,78.34
2017-08-26T06:13:34.557Z,76.74
2017-08-26T06:14:34.578Z,75.33
2017-08-26T06:15:34.600Z,73.72
2017-08-26T06:16:34.607Z,72.83
2017-08-26T06:17:34.620Z,72.44
2017-08-26T06:18:34.640Z,71.02
2017-08-26T06:19:34.650Z,70.18
2017-08-26T06:20:34.682Z,70.05
2017-08-26T06:21:34.692Z,70.37
2017-08-26T06:22:34.710Z,68.86
2017-08-26T06:23:34.729Z,68.66
2017-08-26T06:24:34.753Z,67.73
2017-08-26T06:25:34.753Z,67.96
2017-08-26T06:26:34.783Z,66.92
2017-08-26T06:27:34.805Z,66.66
2017-08-26T06:28:34.797Z,66.17
2017-08-26T06:29:34.832Z,63.97
2017-08-26T06:30:34.868Z,64.17
2017-08-26T06:31:34.870Z,62.06
2017-08-26T06:32:34.869Z,61.87
2017-08-26T06:33:34.920Z,62.29
2017-08-26T06:34:34.905Z,61.11
2017-08-26T06:35:34.938Z,61.11
2017-08-26T06:36:34.937Z,62.12
2017-08-26T06:37:34.958Z,62.80
2017-08-26T06:38:34.972Z,61.18
2017-08-26T06:39:34.991Z,62.08
2017-08-26T06:40:35.036Z,61.21
2017-08-26T06:41:35.025Z,60.82
2017-08-26T06:42:35.049Z,58.87
2017-08-26T06:43:35.062Z,59.77
2017-08-26T06:44:35.102Z,59.09
2017-08-26T06:45:35.099Z,58.89
2017-08-26T06:46:35.119Z,59.28
2017-08-26T06:47:35.147Z,60.19
2017-08-26T06:48:35.185Z,58.04
2017-08-26T06:49:35.202Z,58.04
2017-08-26T06:50:35.191Z,58.04
2017-08-26T06:51:35.227Z,55.54
2017-08-26T06:52:35.227Z,56.00
2017-08-26T06:53:35.268Z,57.00
2017-08-26T06:54:35.287Z,58.04
2017-08-26T06:55:35.296Z,58.04
2017-08-26T06:56:35.327Z,58.04
2017-08-26T06:57:35.324Z,56.97
2017-08-26T06:58:35.341Z,56.61
2017-08-26T06:59:35.382Z,56.93
2017-08-26T07:00:35.387Z,56.64
2017-08-26T07:01:35.406Z,56.67
2017-08-26T07:02:35.419Z,56.37
2017-08-26T07:03:35.443Z,56.27
2017-08-26T07:04:35.459Z,55.62
2017-08-26T07:05:35.484Z,55.32
2017-08-26T07:06:35.491Z,55.74
2017-08-26T07:07:35.509Z,54.96
2017-08-26T07:08:35.537Z,54.57
2017-08-26T07:09:35.547Z,54.50
2017-08-26T07:10:35.572Z,54.40
2017-08-26T07:11:35.592Z,54.11
2017-08-26T07:12:35.603Z,54.13
2017-08-26T07:13:35.642Z,54.43
2017-08-26T07:14:35.649Z,54.36
2017-08-26T07:15:35.680Z,54.06
2017-08-26T07:16:35.680Z,53.77
2017-08-26T07:17:35.709Z,51.51
2017-08-26T07:18:35.728Z,49.95
2017-08-26T07:19:35.740Z,50.04
2017-08-26T07:20:35.762Z,50.93
2017-08-26T07:21:35.787Z,51.05
2017-08-26T07:22:35.803Z,50.85
2017-08-26T07:23:35.826Z,51.56
2017-08-26T07:24:35.842Z,52.25
2017-08-26T07:25:35.864Z,51.66
2017-08-26T07:26:35.884Z,50.88
2017-08-26T07:27:35.903Z,51.59
2017-08-26T07:28:35.925Z,51.37
2017-08-26T07:29:35.942Z,50.81
2017-08-26T07:30:35.963Z,51.79
2017-08-26T07:31:35.991Z,51.37
2017-08-26T07:32:36.008Z,50.68
2017-08-26T07:33:36.058Z,50.29
2017-08-26T07:34:36.040Z,50.20
2017-08-26T07:35:36.058Z,50.07
2017-08-26T07:36:36.084Z,50.17
2017-08-26T07:37:36.105Z,49.19
2017-08-26T07:38:36.128Z,48.70
2017-08-26T07:39:36.143Z,49.77
2017-08-26T07:40:36.162Z,49.48
2017-08-26T07:41:36.190Z,49.38
2017-08-26T07:42:36.202Z,49.48
2017-08-26T07:43:36.221Z,48.99
2017-08-26T07:44:36.248Z,49.19
2017-08-26T07:45:36.289Z,49.19
2017-08-26T07:46:36.301Z,50.17
2017-08-26T07:47:36.299Z,49.95
2017-08-26T07:48:36.325Z,49.95
2017-08-26T07:49:36.341Z,50.04
2017-08-26T07:50:36.359Z,50.15
2017-08-26T07:51:36.380Z,49.48
2017-08-26T07:52:36.403Z,48.97
2017-08-26T07:53:36.418Z,47.11
2017-08-26T07:54:36.442Z,48.38
2017-08-26T07:55:36.460Z,49.07
2017-08-26T07:56:36.481Z,49.16
2017-08-26T07:57:36.501Z,48.97
2017-08-26T07:58:36.521Z,49.14
2017-08-26T07:59:36.543Z,49.02
2017-08-26T08:00:36.561Z,49.21
2017-08-26T08:01:36.577Z,49.80
2017-08-26T08:02:36.634Z,47.65
2017-08-26T08:03:36.621Z,48.33
2017-08-26T08:04:36.639Z,47.92
2017-08-26T08:05:36.658Z,47.92
2017-08-26T08:06:36.679Z,49.19
2017-08-26T08:07:36.711Z,49.77
2017-08-26T08:08:36.724Z,49.87
2017-08-26T08:09:36.739Z,49.87
2017-08-26T08:10:36.760Z,49.77
2017-08-26T08:11:36.779Z,49.87
2017-08-26T08:12:36.799Z,49.77
2017-08-26T08:13:36.822Z,48.90
2017-08-26T08:14:36.867Z,48.31
2017-08-26T08:15:36.863Z,48.90
2017-08-26T08:16:36.879Z,48.80
2017-08-26T08:17:36.897Z,49.07
2017-08-26T08:18:36.924Z,49.07
2017-08-26T08:19:36.943Z,49.07
2017-08-26T08:20:36.994Z,49.16
2017-08-26T08:21:36.983Z,49.53
2017-08-26T08:22:37.014Z,49.24
2017-08-26T08:23:37.046Z,49.82
2017-08-26T08:24:37.054Z,50.02
2017-08-26T08:25:37.061Z,49.80
2017-08-26T08:26:37.097Z,50.61
2017-08-26T08:27:37.112Z,50.02
2017-08-26T08:28:37.114Z,49.92
2017-08-26T08:29:37.157Z,50.12
2017-08-26T08:30:37.169Z,50.10
2017-08-26T08:31:37.184Z,50.49
2017-08-26T08:32:37.217Z,50.59
2017-08-26T08:33:37.229Z,50.88
2017-08-26T08:34:37.255Z,50.49
2017-08-26T08:35:37.272Z,51.27
2017-08-26T08:36:37.301Z,50.68
2017-08-26T08:37:37.294Z,51.66
2017-08-26T08:38:37.307Z,51.76
2017-08-26T08:39:37.324Z,51.56
2017-08-26T08:40:37.372Z,50.29
2017-08-26T08:41:37.381Z,50.68
2017-08-26T08:42:37.380Z,50.88
2017-08-26T08:43:37.411Z,50.88
2017-08-26T08:44:37.436Z,50.88
2017-08-26T08:45:37.461Z,50.75
2017-08-26T08:46:37.509Z,50.75
2017-08-26T08:47:37.475Z,50.65
2017-08-26T08:48:37.511Z,50.56
2017-08-26T08:49:37.553Z,51.73
2017-08-26T08:50:37.568Z,51.92
2017-08-26T08:51:37.565Z,52.22
2017-08-26T08:52:37.581Z,52.12
2017-08-26T08:53:37.607Z,52.09
2017-08-26T08:54:37.635Z,51.53
2017-08-26T08:55:37.636Z,52.12
2017-08-26T08:56:37.683Z,52.58
2017-08-26T08:57:37.696Z,52.58
2017-08-26T08:58:37.700Z,51.61
2017-08-26T08:59:37.724Z,52.29
2017-08-26T09:00:37.765Z,51.80
2017-08-26T09:01:37.775Z,51.90
2017-08-26T09:02:37.800Z,52.39
2017-08-26T09:03:37.807Z,52.19
2017-08-26T09:04:37.820Z,52.19
2017-08-26T09:05:37.858Z,52.29
2017-08-26T09:06:37.855Z,52.58
2017-08-26T09:07:37.873Z,52.58
2017-08-26T09:08:37.911Z,52.58
2017-08-26T09:09:37.909Z,52.68
2017-08-26T09:10:37.940Z,52.46
2017-08-26T09:11:37.943Z,52.95
2017-08-26T09:12:38.002Z,53.24
2017-08-26T09:13:38.006Z,53.53
2017-08-26T09:14:38.008Z,53.73
2017-08-26T09:15:38.030Z,53.83
2017-08-26T09:16:38.056Z,53.63
2017-08-26T09:17:38.068Z,54.11
2017-08-26T09:18:38.090Z,54.02
2017-08-26T09:19:38.112Z,54.31
2017-08-26T09:20:38.126Z,54.31
2017-08-26T09:21:38.133Z,54.60
2017-08-26T09:22:38.166Z,53.83
2017-08-26T09:23:38.190Z,53.92
2017-08-26T09:24:38.200Z,53.83
2017-08-26T09:25:38.202Z,53.34
2017-08-26T09:26:38.244Z,53.34
2017-08-26T09:27:38.255Z,53.11
2017-08-26T09:28:38.262Z,52.92
2017-08-26T09:29:38.283Z,53.31
2017-08-26T09:30:38.329Z,53.70
2017-08-26T09:31:38.320Z,53.99
2017-08-26T09:32:38.343Z,53.21
2017-08-26T09:33:38.355Z,53.11
2017-08-26T09:34:38.382Z,53.02
2017-08-26T09:35:38.388Z,52.53
2017-08-26T09:36:38.439Z,52.34
2017-08-26T09:37:38.462Z,52.73
2017-08-26T09:38:38.489Z,52.14
2017-08-26T09:39:38.489Z,51.85
2017-08-26T09:40:38.490Z,52.24
2017-08-26T09:41:38.536Z,52.63
2017-08-26T09:42:38.534Z,53.09
2017-08-26T09:43:38.545Z,53.48
2017-08-26T09:44:38.571Z,53.38
2017-08-26T09:45:38.585Z,53.38
2017-08-26T09:46:38.612Z,53.38
2017-08-26T09:47:38.618Z,53.19
2017-08-26T09:48:38.646Z,52.89
2017-08-26T09:49:38.671Z,53.58
2017-08-26T09:50:38.682Z,53.58
2017-08-26T09:51:38.706Z,52.40
2017-08-26T09:52:38.733Z,52.12
2017-08-26T09:53:38.737Z,52.31
2017-08-26T09:54:38.748Z,52.38
2017-08-26T09:55:38.771Z,52.89
2017-08-26T09:56:38.780Z,53.16
2017-08-26T09:57:38.808Z,53.28
2017-08-26T09:58:38.819Z,53.26
2017-08-26T09:59:38.841Z,53.45
2017-08-26T10:00:38.861Z,53.26
2017-08-26T10:01:38.878Z,53.45
2017-08-26T10:02:38.896Z,53.65
2017-08-26T10:03:38.914Z,53.36
2017-08-26T10:04:38.934Z,52.48
2017-08-26T10:05:38.976Z,52.67
2017-08-26T10:06:38.973Z,53.19
2017-08-26T10:07:38.992Z,53.38
2017-08-26T10:08:39.010Z,52.77
2017-08-26T10:09:39.028Z,52.87
2017-08-26T10:10:39.047Z,53.67
2017-08-26T10:11:39.068Z,53.06
2017-08-26T10:12:39.091Z,52.89
2017-08-26T10:13:39.102Z,51.51
2017-08-26T10:14:39.120Z,51.80
2017-08-26T10:15:39.138Z,51.21
2017-08-26T10:16:39.158Z,51.41
2017-08-26T10:17:39.173Z,52.09
2017-08-26T10:18:39.195Z,52.48
2017-08-26T10:19:39.215Z,52.38
2017-08-26T10:20:39.239Z,51.99
2017-08-26T10:21:39.251Z,51.51
2017-08-26T10:22:39.285Z,50.53
2017-08-26T10:23:39.294Z,51.21
2017-08-26T10:24:39.308Z,51.34
2017-08-26T10:25:39.321Z,50.53
2017-08-26T10:26:39.359Z,50.82
2017-08-26T10:27:39.380Z,50.95
2017-08-26T10:28:39.381Z,50.53
2017-08-26T10:29:39.401Z,50.82
2017-08-26T10:30:39.413Z,50.73
2017-08-26T10:31:39.440Z,50.53
2017-08-26T10:32:39.468Z,50.43
2017-08-26T10:33:39.477Z,51.02
2017-08-26T10:34:39.484Z,50.63
2017-08-26T10:35:39.507Z,50.63
2017-08-26T10:36:39.561Z,50.46
2017-08-26T10:37:39.549Z,50.63
2017-08-26T10:38:39.571Z,49.78
2017-08-26T10:39:39.586Z,49.78
2017-08-26T10:40:39.604Z,50.36
2017-08-26T10:41:39.632Z,50.46
2017-08-26T10:42:39.640Z,49.88
2017-08-26T10:43:39.655Z,49.10
2017-08-26T10:44:39.679Z,49.78
2017-08-26T10:45:39.691Z,49.49
2017-08-26T10:46:39.711Z,49.68
2017-08-26T10:47:39.732Z,50.16
2017-08-26T10:48:39.745Z,49.88
2017-08-26T10:49:39.767Z,50.36
2017-08-26T10:50:39.787Z,50.16
2017-08-26T10:51:39.804Z,50.95
2017-08-26T10:52:39.817Z,51.14
2017-08-26T10:53:39.844Z,51.63
2017-08-26T10:54:39.860Z,51.82
2017-08-26T10:55:39.880Z,51.34
2017-08-26T10:56:39.897Z,51.14
2017-08-26T10:57:39.915Z,50.65
2017-08-26T10:58:39.960Z,50.65
2017-08-26T10:59:39.951Z,51.34
2017-08-26T11:00:39.973Z,50.65
2017-08-26T11:01:39.984Z,50.87
2017-08-26T11:02:40.008Z,51.14
2017-08-26T11:03:40.034Z,51.17
2017-08-26T11:04:40.040Z,52.02
2017-08-26T11:05:40.058Z,51.65
2017-08-26T11:06:40.075Z,51.65
2017-08-26T11:07:40.102Z,52.12
2017-08-26T11:08:40.118Z,51.85
2017-08-26T11:09:40.137Z,52.04
2017-08-26T11:10:40.159Z,51.65
2017-08-26T11:11:40.174Z,52.04
2017-08-26T11:12:40.195Z,51.65
2017-08-26T11:13:40.208Z,52.24
2017-08-26T11:14:40.236Z,51.75
2017-08-26T11:15:40.256Z,52.34
2017-08-26T11:16:40.260Z,51.85
2017-08-26T11:17:40.281Z,51.17
2017-08-26T11:18:40.312Z,51.17
2017-08-26T11:19:40.321Z,51.46
2017-08-26T11:20:40.355Z,51.65
2017-08-26T11:21:40.361Z,51.95
2017-08-26T11:22:40.398Z,51.85
2017-08-26T11:23:40.404Z,51.75
2017-08-26T11:24:40.431Z,51.78
2017-08-26T11:25:40.438Z,51.85
2017-08-26T11:26:40.456Z,52.07
2017-08-26T11:27:40.503Z,51.68
2017-08-26T11:28:40.490Z,51.29
2017-08-26T11:29:40.505Z,50.99
2017-08-26T11:30:40.524Z,50.60
2017-08-26T11:31:40.582Z,50.51
2017-08-26T11:32:40.594Z,50.82
2017-08-26T11:33:40.606Z,51.29
2017-08-26T11:34:40.658Z,51.31
2017-08-26T11:35:40.648Z,50.82
2017-08-26T11:36:40.648Z,50.73
2017-08-26T11:37:40.708Z,51.12
2017-08-26T11:38:40.686Z,50.63
2017-08-26T11:39:40.710Z,50.63
2017-08-26T11:40:40.750Z,51.02
2017-08-26T11:41:40.738Z,50.92
2017-08-26T11:42:40.799Z,50.53
2017-08-26T11:43:40.807Z,50.43
2017-08-26T11:44:40.824Z,50.24
2017-08-26T11:45:40.849Z,50.73
2017-08-26T11:46:40.869Z,50.82
2017-08-26T11:47:40.876Z,50.92
2017-08-26T11:48:40.870Z,50.14
2017-08-26T11:49:40.890Z,49.95
2017-08-26T11:50:40.916Z,49.17
2017-08-26T11:51:40.951Z,50.14
2017-08-26T11:52:40.980Z,50.43
2017-08-26T11:53:40.981Z,50.04
2017-08-26T11:54:41.925Z,50.43
2017-08-26T11:55:41.026Z,50.34
2017-08-26T11:56:41.059Z,50.07
2017-08-26T11:57:41.055Z,49.68
2017-08-26T11:58:41.104Z,49.85
2017-08-26T11:59:41.102Z,49.88
2017-08-26T12:00:41.102Z,50.34
2017-08-26T12:01:41.146Z,50.07
2017-08-26T12:02:41.173Z,49.78
2017-08-26T12:03:41.193Z,49.78
2017-08-26T12:04:41.182Z,49.39
2017-08-26T12:05:41.191Z,49.10
2017-08-26T12:06:41.223Z,49.49
2017-08-26T12:07:41.252Z,47.56
2017-08-26T12:08:41.265Z,47.95
2017-08-26T12:09:41.286Z,48.41
2017-08-26T12:10:41.290Z,47.95
2017-08-26T12:11:41.342Z,47.75
2017-08-26T12:12:41.334Z,48.12
2017-08-26T12:13:41.361Z,48.41
2017-08-26T12:14:41.400Z,47.34
2017-08-26T12:15:41.395Z,47.14
2017-08-26T12:16:41.435Z,46.29
2017-08-26T12:17:41.433Z,47.17
2017-08-26T12:18:41.447Z,47.27
2017-08-26T12:19:41.485Z,46.48
2017-08-26T12:20:41.506Z,46.29
2017-08-26T12:21:41.511Z,46.58
2017-08-26T12:22:41.543Z,46.68
2017-08-26T12:23:41.551Z,47.05
2017-08-26T12:24:41.557Z,47.17
2017-08-26T12:25:41.583Z,47.36
2017-08-26T12:26:41.629Z,47.27
2017-08-26T12:27:41.639Z,46.88
2017-08-26T12:28:41.646Z,47.17
2017-08-26T12:29:41.669Z,47.44
2017-08-26T12:30:41.673Z,47.17
2017-08-26T12:31:41.712Z,46.58
2017-08-26T12:32:41.729Z,47.27
2017-08-26T12:33:41.718Z,46.58
2017-08-26T12:34:41.765Z,47.17
2017-08-26T12:35:41.765Z,46.97
2017-08-26T12:36:41.802Z,47.46
2017-08-26T12:37:41.817Z,47.85
2017-08-26T12:38:41.814Z,47.27
2017-08-26T12:39:41.839Z,47.85
2017-08-26T12:40:41.890Z,48.12
2017-08-26T12:41:41.897Z,48.80
2017-08-26T12:42:41.897Z,47.85
2017-08-26T12:43:41.929Z,47.66
2017-08-26T12:44:41.950Z,46.19
2017-08-26T12:45:41.968Z,46.58
2017-08-26T12:46:41.989Z,46.39
2017-08-26T12:47:42.008Z,47.36
2017-08-26T12:48:42.044Z,47.07
2017-08-26T12:49:42.030Z,47.56
2017-08-26T12:50:42.056Z,46.29
2017-08-26T12:51:42.074Z,46.68
2017-08-26T12:52:42.115Z,47.17